NCAR-RAP Real-Time Weather Data

Output produced by METARs form (08 May 2021  16:33 UTC)
found at http://weather.rap.ucar.edu/surface/
 
KROA 081554Z 30016G29KT 10SM CLR 16/M01 A3001 RMK AO2 PK WND 31029/1543 SLP160 T01611006
KROA 081454Z 31017G26KT 10SM FEW045 15/01 A3001 RMK AO2 PK WND 31026/1448 SLP159 T01500011 53001
KROA 081354Z 31019G32KT 10SM SCT045 13/02 A3000 RMK AO2 PK WND 32032/1349 SLP158 T01330022
KROA 081254Z 30008KT 10SM FEW037 SCT046 12/06 A3000 RMK AO2 SLP157 T01220056
KROA 081154Z 25007KT 10SM FEW080 SCT100 09/06 A3000 RMK AO2 SLP158 60003 70004 T00940056 10094 20061 53015
KROA 081054Z 28004KT 10SM SCT110 07/04 A2999 RMK AO2 SLP154 T00670044
KROA 080954Z 25006KT 10SM FEW080 SCT110 07/05 A2997 RMK AO2 SLP146 T00720050
KROA 080854Z 26004KT 10SM FEW080 BKN110 08/04 A2996 RMK AO2 RAB0757E18 SLP143 P0003 60003 T00830044 58002
KROA 080754Z 31007KT 10SM BKN047 09/04 A2998 RMK AO2 RAB22E35 SLP149 P0000 T00890044
KROA 080654Z 29004KT 10SM SCT050 OVC070 09/02 A2997 RMK AO2 SLP145 T00890022
KROA 080554Z 00000KT 10SM SCT070 BKN090 06/03 A2997 RMK AO2 SLP148 T00610028 10139 20061 55005
KROA 080454Z 00000KT 10SM CLR 08/02 A2997 RMK AO2 SLP145 T00780017 401610061
KROA 080354Z 31003KT 10SM CLR 08/01 A2998 RMK AO2 SLP150 T00780006
KROA 080254Z 31003KT 10SM CLR 09/01 A2998 RMK AO2 SLP152 T00940006 53015
KROA 080154Z 29003KT 10SM CLR 11/M01 A2997 RMK AO2 SLP148 T01061006
KROA 080054Z 32005KT 10SM CLR 11/M01 A2995 RMK AO2 SLP139 T01111011
KROA 072354Z 32013KT 10SM FEW075 14/M02 A2994 RMK AO2 PK WND 30026/2314 SLP134 60000 T01391022 10161 20106 53004
KROA 072254Z 31012G24KT 10SM FEW075 15/M02 A2993 RMK AO2 PK WND 28034/2227 SLP132 T01501017
KROA 072154Z 30018G28KT 10SM SCT070 16/M01 A2993 RMK AO2 PK WND 33029/2121 RAE2056 SLP131 P0000 T01561006
KROA 072054Z 30013KT 10SM -RA SCT055 SCT075 BKN085 15/03 A2992 RMK AO2 PK WND 30034/2039 RAB26 SLP131 P0000 60000 T01500033 55003
KROA 071954Z 29015G30KT 10SM FEW047 SCT060 BKN075 15/02 A2992 RMK AO2 PK WND 31030/1949 RAB38E47 SLP129 P0000 T01500022
KROA 071854Z 28012G21KT 10SM FEW049 SCT055 BKN100 15/05 A2993 RMK AO2 PK WND 27027/1837 RAE13 SLP131 P0000 T01500050
KROA 071754Z 30019G27KT 10SM -RA BKN050 OVC065 11/06 A2993 RMK AO2 PK WND 29027/1753 RAB39 SLP135 P0000 60001 T01110056 10150 20106 55002
KROA 071654Z 32013G19KT 10SM FEW042 FEW080 SCT120 15/06 A2992 RMK AO2 RAB02E17 SLP130 P0000 T01500056
KROA 071554Z 29011KT 10SM OVC075 13/06 A2994 RMK AO2 RAE09 SLP136 P0000 T01330056
KROA 071454Z 28003KT 7SM -RA OVC048 11/06 A2994 RMK AO2 RAE04B36 SLP136 P0001 60001 T01110061 53009
KROA 071354Z 00000KT 10SM -RA OVC065 12/06 A2992 RMK AO2 RAB48 SLP130 P0000 T01170056
KROA 071254Z 30005KT 10SM SCT065 OVC080 11/05 A2992 RMK AO2 SLP128 T01110050
KROA 071154Z 00000KT 10SM SCT110 11/05 A2991 RMK AO2 SLP125 T01110050 10111 20072 55000
KROA 071054Z 09003KT 10SM FEW120 FEW150 BKN180 08/05 A2990 RMK AO2 SLP123 T00830050
KROA 070954Z 00000KT 10SM SCT120 BKN200 07/05 A2990 RMK AO2 SLP122 T00720050
KROA 070854Z 00000KT 10SM BKN200 08/04 A2991 RMK AO2 SLP125 T00830044 56015
KROA 070754Z 32004KT 10SM CLR 08/05 A2992 RMK AO2 SLP127 T00780050
KROA 070654Z 00000KT 10SM CLR 08/04 A2994 RMK AO2 SLP135 T00830039
KROA 070554Z 00000KT 10SM CLR 09/03 A2996 RMK AO2 SLP142 T00940033 10172 20094 56010
KROA 070454Z 00000KT 10SM CLR 11/04 A2997 RMK AO2 SLP144 T01060044 402060072
KROA 070354Z 00000KT 10SM CLR 12/04 A2998 RMK AO2 SLP147 T01170044
KROA 070254Z 36003KT 10SM CLR 14/05 A2999 RMK AO2 SLP150 T01440050 51010
KROA 070154Z 11003KT 10SM CLR 15/05 A2998 RMK AO2 SLP149 T01500050
KROA 070054Z 14006KT 10SM SCT080 16/05 A2997 RMK AO2 SLP145 T01560050
KROA 062354Z 15007KT 10SM SCT080 17/04 A2996 RMK AO2 SLP140 T01720039 10206 20167 55001
KROA 062254Z 23005KT 10SM FEW050 18/02 A2995 RMK AO2 SLP138 T01830022
KROA 062154Z VRB03KT 10SM FEW050 20/02 A2995 RMK AO2 SLP139 T02000022
KROA 062054Z VRB05KT 10SM FEW045 20/03 A2996 RMK AO2 SLP140 T02000028 56022
KROA 061954Z VRB06KT 10SM FEW045 18/02 A2997 RMK AO2 SLP145 T01830022
KROA 061854Z 09005KT 10SM FEW045 FEW200 18/03 A3000 RMK AO2 SLP153 T01830028
KROA 061754Z VRB03KT 10SM FEW045 FEW200 17/02 A3003 RMK AO2 SLP163 T01720022 10178 20106 58024
KROA 061654Z VRB04KT 10SM FEW046 17/02 A3005 RMK AO2 SLP172 T01670022